Time;durP1;ratioP1;P1;durP2;ratioP2;P2;SDS_P1;SDS_P2;PMS_P1;PMS_P2;Temp;Humidity;BMP_temperature;BMP_pressure;BME280_temperature;BME280_humidity;BME280_pressure;Samples;Min_cycle;Max_cycle;Signal;HPM_P1;HPM_P2
2022/08/21 00:01:28;;;;;;;0.52;0.52;;;;;;;21.02;51.00;101153.72;5132695;28;20042;-80
2022/08/21 00:04:04;;;;;;;1.77;1.10;;;;;;;20.97;51.35;101148.69;5142907;28;20028;-80
2022/08/21 00:06:36;;;;;;;2.58;1.05;;;;;;;20.93;51.52;101144.50;5168380;28;20590;-80
2022/08/21 00:09:10;;;;;;;1.65;0.77;;;;;;;20.91;51.70;101141.09;5142046;28;20034;-80
2022/08/21 00:12:11;;;;;;;1.25;1.13;;;;;;;20.87;51.43;101139.56;5134341;28;20043;-81
2022/08/21 00:14:41;;;;;;;0.70;0.70;;;;;;;20.85;51.42;101133.47;5172866;28;20046;-82
2022/08/21 00:17:12;;;;;;;0.65;0.40;;;;;;;20.82;51.29;101139.00;5143147;28;20042;-81
2022/08/21 00:19:43;;;;;;;0.98;0.52;;;;;;;20.80;51.59;101135.56;5150008;28;20030;-82
2022/08/21 00:22:13;;;;;;;0.93;0.80;;;;;;;20.77;51.99;101127.78;5164738;28;20050;-82
2022/08/21 00:24:44;;;;;;;0.40;0.40;;;;;;;20.73;51.94;101130.63;5146742;28;20501;-81
2022/08/21 00:27:15;;;;;;;8.88;1.00;;;;;;;20.71;52.46;101124.50;5163511;28;20041;-81
2022/08/21 00:29:45;;;;;;;9.77;1.52;;;;;;;20.68;51.92;101130.06;5148094;28;20061;-81
2022/08/21 00:32:24;;;;;;;0.57;0.57;;;;;;;20.65;50.99;101130.22;5161190;28;20034;-81
2022/08/21 00:34:55;;;;;;;0.70;0.70;;;;;;;20.61;52.09;101126.06;5117387;28;20026;-81
2022/08/21 00:37:26;;;;;;;3.15;1.00;;;;;;;20.60;50.39;101129.69;5165604;28;20088;-82
2022/08/21 00:39:57;;;;;;;0.77;0.70;;;;;;;20.59;50.42;101123.47;5163954;28;20038;-81
2022/08/21 00:42:32;;;;;;;1.85;1.75;;;;;;;20.52;51.61;101126.63;5132381;28;20061;-82
2022/08/21 00:45:03;;;;;;;0.47;0.47;;;;;;;20.49;50.33;101118.81;5129675;28;20030;-81
2022/08/21 00:47:34;;;;;;;0.40;0.40;;;;;;;20.44;51.19;101121.78;5134206;28;20034;-80
2022/08/21 00:50:09;;;;;;;0.55;0.50;;;;;;;20.42;50.94;101116.56;5151204;28;20037;-80
2022/08/21 00:52:41;;;;;;;0.98;0.82;;;;;;;20.39;52.02;101111.41;5131282;28;20069;-80
2022/08/21 00:55:13;;;;;;;0.93;0.93;;;;;;;20.38;51.33;101115.00;5146858;28;20048;-81
2022/08/21 00:57:47;;;;;;;0.70;0.70;;;;;;;20.35;51.68;101106.34;5131567;28;20607;-82
2022/08/21 01:00:23;;;;;;;3.90;1.05;;;;;;;20.33;51.60;101114.44;5134622;28;20057;-81
2022/08/21 01:02:58;;;;;;;0.75;0.65;;;;;;;20.28;52.07;101114.75;5132777;28;20076;-80
2022/08/21 01:05:29;;;;;;;1.60;1.15;;;;;;;20.24;52.12;101110.56;5129417;28;20106;-81
2022/08/21 01:08:00;;;;;;;0.40;0.40;;;;;;;20.23;51.80;101115.97;5150235;28;20117;-81
2022/08/21 01:10:30;;;;;;;0.73;0.73;;;;;;;20.20;52.57;101108.19;5128354;28;20125;-81
2022/08/21 01:13:03;;;;;;;1.60;1.50;;;;;;;20.20;51.53;101116.19;5130473;28;20042;-82
2022/08/21 01:15:37;;;;;;;0.65;0.52;;;;;;;20.18;53.11;101120.72;5131276;28;20104;-81
2022/08/21 01:18:11;;;;;;;0.70;0.70;;;;;;;20.12;53.89;101117.47;5136246;28;20033;-81
2022/08/21 01:20:46;;;;;;;0.40;0.40;;;;;;;20.09;53.07;101120.34;5127283;28;20052;-81
2022/08/21 01:23:18;;;;;;;0.88;0.85;;;;;;;20.06;52.85;101120.53;5145542;28;20041;-81
2022/08/21 01:25:49;;;;;;;;;;;;;;;20.05;53.38;101121.47;5144565;28;20121;-81
2022/08/21 01:28:21;;;;;;;2.60;0.82;;;;;;;20.03;52.05;101126.06;5127193;28;20012;-81
2022/08/21 01:30:56;;;;;;;0.55;0.55;;;;;;;20.01;52.38;101117.28;5160292;28;20689;-80
2022/08/21 01:33:29;;;;;;;1.08;0.73;;;;;;;19.97;52.53;101123.75;5142886;28;20535;-81
2022/08/21 01:35:59;;;;;;;0.75;0.75;;;;;;;19.96;52.43;101130.00;5120070;28;20120;-81
2022/08/21 01:38:30;;;;;;;1.90;1.20;;;;;;;19.93;52.67;101132.88;5127414;28;20050;-81
2022/08/21 01:41:01;;;;;;;0.93;0.93;;;;;;;19.92;53.05;101125.84;5137665;28;20050;-81
2022/08/21 01:43:34;;;;;;;0.80;0.80;;;;;;;19.90;52.94;101128.59;5127226;28;20031;-80
2022/08/21 01:46:05;;;;;;;0.80;0.80;;;;;;;19.87;53.34;101122.59;5145031;28;20038;-81
2022/08/21 01:48:37;;;;;;;0.40;0.40;;;;;;;19.88;51.82;101118.97;5129174;28;20043;-81
2022/08/21 01:51:11;;;;;;;0.40;0.40;;;;;;;19.85;52.37;101119.16;5135198;28;20101;-81
2022/08/21 01:53:42;;;;;;;0.80;0.80;;;;;;;19.84;51.99;101117.41;5105753;28;20073;-81
2022/08/21 01:56:15;;;;;;;0.70;0.70;;;;;;;19.80;53.77;101116.75;5127086;28;20070;-81
2022/08/21 01:58:46;;;;;;;;;;;;;;;19.77;53.16;101111.59;5127101;28;20030;-81
2022/08/21 02:01:17;;;;;;;0.50;0.50;;;;;;;19.77;53.63;101116.91;5144078;28;19980;-81
2022/08/21 02:03:47;;;;;;;1.45;1.27;;;;;;;19.73;53.77;101112.75;5130201;28;20408;-82
2022/08/21 02:06:18;;;;;;;1.15;1.05;;;;;;;19.74;52.63;101104.66;5146318;28;20038;-81
2022/08/21 02:08:50;;;;;;;3.45;1.35;;;;;;;19.76;52.15;101109.88;5145763;28;20054;-81
2022/08/21 02:11:20;;;;;;;0.40;0.40;;;;;;;19.75;51.96;101108.19;5142175;28;20050;-81
2022/08/21 02:13:51;;;;;;;0.50;0.50;;;;;;;19.74;51.73;101107.31;5145835;28;20414;-82
2022/08/21 02:16:21;;;;;;;0.80;0.77;;;;;;;19.72;52.14;101109.19;5155810;28;20043;-81
2022/08/21 02:18:52;;;;;;;1.25;1.15;;;;;;;19.70;52.29;101111.13;5129856;28;20085;-81
2022/08/21 02:21:22;;;;;;;1.55;1.45;;;;;;;19.71;52.14;101107.47;5128230;28;20675;-81
2022/08/21 02:23:53;;;;;;;1.20;0.75;;;;;;;19.76;52.24;101121.41;5132490;28;20042;-81
2022/08/21 02:26:23;;;;;;;1.75;1.65;;;;;;;19.75;52.53;101118.84;5143771;28;20530;-81
2022/08/21 02:28:54;;;;;;;1.33;1.13;;;;;;;19.71;53.09;101110.16;5148528;28;20506;-81
2022/08/21 02:31:25;;;;;;;0.60;0.60;;;;;;;19.69;52.78;101109.41;5145768;28;20057;-81
2022/08/21 02:33:55;;;;;;;1.58;1.02;;;;;;;19.59;53.33;101100.25;5148268;28;20029;-81
2022/08/21 02:36:26;;;;;;;0.85;0.85;;;;;;;19.53;53.30;101111.25;5128038;28;20045;-81
2022/08/21 02:38:57;;;;;;;1.15;1.10;;;;;;;19.49;53.70;101106.09;5129511;28;20028;-81
2022/08/21 02:41:27;;;;;;;0.90;0.70;;;;;;;19.52;53.28;101109.53;5127317;28;20129;-81
2022/08/21 02:43:58;;;;;;;1.20;1.10;;;;;;;19.52;52.93;101110.38;5142661;28;20380;-81
2022/08/21 02:46:30;;;;;;;0.50;0.50;;;;;;;19.46;54.08;101113.41;5160084;28;20062;-81
2022/08/21 02:49:00;;;;;;;1.52;1.42;;;;;;;19.41;53.38;101116.34;5146115;28;20030;-82
2022/08/21 02:51:34;;;;;;;0.50;0.50;;;;;;;19.37;54.01;101111.28;5144869;28;20038;-81
2022/08/21 02:54:07;;;;;;;1.25;1.15;;;;;;;19.35;54.81;101106.91;5127487;28;20025;-81
2022/08/21 02:56:41;;;;;;;0.73;0.73;;;;;;;19.36;53.18;101113.09;5120670;28;20093;-81
2022/08/21 02:59:14;;;;;;;0.70;0.70;;;;;;;19.30;54.42;101110.78;5109124;28;20361;-81
2022/08/21 03:01:49;;;;;;;0.80;0.80;;;;;;;19.29;53.91;101106.41;5114287;28;20030;-82
2022/08/21 03:04:20;;;;;;;0.82;0.82;;;;;;;19.30;53.00;101108.97;5128965;28;20435;-81
2022/08/21 03:06:53;;;;;;;0.77;0.77;;;;;;;19.24;53.88;101104.03;5137685;28;20058;-81
2022/08/21 03:09:27;;;;;;;0.82;0.82;;;;;;;19.27;53.63;101097.66;5112091;28;20089;-81
2022/08/21 03:12:02;;;;;;;0.70;0.70;;;;;;;19.22;53.56;101102.38;5138868;28;20443;-81
2022/08/21 03:14:34;;;;;;;0.50;0.50;;;;;;;19.22;53.82;101094.38;5141109;28;20039;-82
2022/08/21 03:17:06;;;;;;;1.35;1.08;;;;;;;19.17;53.46;101095.53;5140069;28;20475;-81
2022/08/21 03:19:40;;;;;;;2.17;1.42;;;;;;;19.19;53.52;101085.66;5139593;28;20500;-81
2022/08/21 03:22:11;;;;;;;1.33;0.68;;;;;;;19.12;54.22;101094.06;5154552;28;20504;-81
2022/08/21 03:24:45;;;;;;;1.75;1.63;;;;;;;19.17;54.83;101092.03;5130889;28;20041;-81
2022/08/21 03:27:15;;;;;;;0.90;0.80;;;;;;;18.99;56.81;101094.78;5115950;28;20046;-81
2022/08/21 03:29:46;;;;;;;4.47;1.25;;;;;;;19.00;55.08;101095.63;5150371;28;20495;-80
2022/08/21 03:32:16;;;;;;;0.73;0.63;;;;;;;18.95;56.04;101100.38;5152577;28;20039;-81
2022/08/21 03:34:47;;;;;;;0.55;0.55;;;;;;;18.95;54.29;101100.38;5126364;28;20019;-81
2022/08/21 03:37:17;;;;;;;2.28;1.02;;;;;;;18.90;55.22;101100.59;5107059;28;20065;-81
2022/08/21 03:39:48;;;;;;;3.13;1.58;;;;;;;18.83;55.40;101089.44;5150906;28;20117;-81
2022/08/21 03:42:19;;;;;;;0.82;0.82;;;;;;;18.80;55.45;101102.03;5132445;28;20031;-81
2022/08/21 03:44:50;;;;;;;0.98;0.93;;;;;;;18.78;55.29;101104.78;5146642;28;20030;-81
2022/08/21 03:47:22;;;;;;;1.50;1.13;;;;;;;18.73;55.32;101098.84;5129915;28;20439;-81
2022/08/21 03:49:52;;;;;;;0.40;0.40;;;;;;;18.71;55.32;101098.94;5130295;28;20038;-81
2022/08/21 03:52:25;;;;;;;0.47;0.47;;;;;;;18.69;55.23;101103.47;5111605;28;20039;-81
2022/08/21 03:55:00;;;;;;;1.17;1.10;;;;;;;18.68;55.13;101103.56;5111933;28;20030;-81
2022/08/21 03:57:33;;;;;;;2.20;1.75;;;;;;;18.66;56.02;101102.78;5111311;28;20066;-81
2022/08/21 04:00:07;;;;;;;0.85;0.85;;;;;;;18.64;55.89;101102.00;5147167;28;20061;-82
2022/08/21 04:02:39;;;;;;;0.88;0.88;;;;;;;18.63;55.89;101108.31;5111899;28;20027;-81
2022/08/21 04:05:11;;;;;;;0.60;0.60;;;;;;;18.61;55.32;101115.50;5115903;28;20094;-81
2022/08/21 04:07:44;;;;;;;0.98;0.98;;;;;;;18.61;55.13;101115.50;5162047;28;20044;-81
2022/08/21 04:10:15;;;;;;;0.77;0.77;;;;;;;18.56;55.92;101113.94;5159666;28;20746;-80
2022/08/21 04:12:45;;;;;;;1.23;1.15;;;;;;;18.56;55.78;101115.75;5128539;28;20029;-79
2022/08/21 04:15:16;;;;;;;6.70;0.98;;;;;;;18.52;55.29;101123.03;5140952;28;20026;-79
2022/08/21 04:17:50;;;;;;;0.77;0.75;;;;;;;18.52;54.69;101130.13;5124589;28;20541;-79
2022/08/21 04:20:21;;;;;;;1.77;0.90;;;;;;;18.50;55.07;101124.91;5149706;28;20061;-79
2022/08/21 04:22:52;;;;;;;2.30;1.60;;;;;;;18.52;54.43;101123.03;5150108;28;20038;-79
2022/08/21 04:25:25;;;;;;;4.68;1.55;;;;;;;18.58;54.24;101126.28;5155969;28;20535;-78
2022/08/21 04:27:55;;;;;;;0.55;0.55;;;;;;;18.49;55.83;101125.00;5128268;28;20042;-79
2022/08/21 04:30:28;;;;;;;0.50;0.50;;;;;;;18.45;55.79;101128.75;5126164;28;20042;-78
2022/08/21 04:33:00;;;;;;;3.60;0.98;;;;;;;18.45;55.51;101134.06;5132893;28;20049;-78
2022/08/21 04:35:31;;;;;;;1.58;0.93;;;;;;;18.45;55.43;101131.41;5127299;28;20046;-79
2022/08/21 04:38:22;;;;;;;1.65;1.30;;;;;;;18.43;55.21;101130.66;5142396;28;20146;-81
2022/08/21 04:40:53;;;;;;;1.50;1.27;;;;;;;18.40;55.94;101128.97;5126435;28;20753;-80
2022/08/21 04:43:23;;;;;;;1.02;0.70;;;;;;;18.37;55.92;101129.16;5138591;28;20035;-81
2022/08/21 04:45:54;;;;;;;0.40;0.40;;;;;;;18.36;54.77;101125.63;5113788;28;20721;-80
2022/08/21 04:48:25;;;;;;;0.77;0.77;;;;;;;18.33;55.92;101128.47;5113409;28;20027;-80
2022/08/21 04:51:11;;;;;;;0.98;0.85;;;;;;;18.31;55.14;101126.81;5117682;28;20070;-80
2022/08/21 04:53:55;;;;;;;2.33;1.83;;;;;;;18.27;55.77;101128.78;5129891;28;20034;-81
2022/08/21 04:56:46;;;;;;;0.60;0.57;;;;;;;18.28;55.69;101127.00;5129998;28;20047;-81
2022/08/21 04:59:22;;;;;;;0.60;0.60;;;;;;;18.23;55.78;101138.72;5145869;28;20198;-81
2022/08/21 05:01:57;;;;;;;0.52;0.52;;;;;;;18.23;55.34;101128.09;5130109;28;20050;-81
2022/08/21 05:04:30;;;;;;;0.65;0.65;;;;;;;18.22;55.65;101131.69;5123025;28;20026;-81
2022/08/21 05:07:07;;;;;;;2.22;1.10;;;;;;;18.24;54.96;101134.28;5159403;28;20144;-81
2022/08/21 05:09:38;;;;;;;0.55;0.55;;;;;;;18.20;55.95;101133.56;5152586;28;20636;-81
2022/08/21 05:12:10;;;;;;;0.60;0.60;;;;;;;18.21;54.94;101130.00;5128996;28;20165;-80
2022/08/21 05:14:42;;;;;;;0.60;0.60;;;;;;;18.17;55.58;101136.38;5152105;28;20040;-80
2022/08/21 05:17:12;;;;;;;0.75;0.75;;;;;;;18.16;55.26;101137.31;5118299;28;20042;-80
2022/08/21 05:19:43;;;;;;;0.63;0.50;;;;;;;18.16;55.67;101144.44;5147708;28;20033;-80
2022/08/21 05:22:22;;;;;;;0.60;0.60;;;;;;;18.18;55.50;101151.38;5149793;28;20037;-81
2022/08/21 05:24:52;;;;;;;0.77;0.57;;;;;;;18.12;55.95;101153.50;5147814;28;20034;-81
2022/08/21 05:27:23;;;;;;;0.70;0.70;;;;;;;18.15;54.83;101156.84;5146088;28;20414;-81
2022/08/21 05:29:53;;;;;;;1.23;1.13;;;;;;;18.14;55.99;101149.81;5147350;28;20130;-80
2022/08/21 05:32:25;;;;;;;2.70;0.73;;;;;;;18.08;55.83;101153.66;5137575;28;20489;-80
2022/08/21 05:34:55;;;;;;;0.50;0.50;;;;;;;18.10;55.41;101158.88;5129637;28;20098;-81
2022/08/21 05:37:26;;;;;;;0.50;0.50;;;;;;;18.08;56.23;101158.09;5145610;28;20161;-81
2022/08/21 05:39:57;;;;;;;0.55;0.55;;;;;;;18.07;55.63;101159.91;5112223;28;20034;-81
2022/08/21 05:42:30;;;;;;;0.50;0.50;;;;;;;18.07;55.79;101159.03;5128505;28;20042;-81
2022/08/21 05:45:01;;;;;;;0.47;0.47;;;;;;;18.06;55.77;101162.63;5124387;28;20040;-81
2022/08/21 05:47:32;;;;;;;1.52;0.68;;;;;;;18.06;56.15;101154.66;5126002;28;20121;-81
2022/08/21 05:50:04;;;;;;;0.60;0.60;;;;;;;18.06;56.01;101152.88;5139530;28;20113;-81
2022/08/21 05:52:34;;;;;;;0.90;0.90;;;;;;;18.06;56.14;101154.66;5145306;28;20026;-80
2022/08/21 05:55:06;;;;;;;0.52;0.52;;;;;;;18.08;54.99;101150.13;5138963;28;20025;-81
2022/08/21 05:57:40;;;;;;;0.60;0.60;;;;;;;18.08;55.82;101150.13;5115966;28;20038;-82
2022/08/21 06:00:12;;;;;;;0.30;0.30;;;;;;;18.07;55.98;101159.03;5131415;28;20041;-81
2022/08/21 06:02:42;;;;;;;0.30;0.30;;;;;;;18.12;54.96;101150.84;5112630;28;20038;-81
2022/08/21 06:05:13;;;;;;;0.30;0.30;;;;;;;18.09;56.21;101141.22;5142830;28;20022;-83
2022/08/21 06:07:46;;;;;;;0.30;0.30;;;;;;;18.13;55.08;101145.47;5130334;28;20038;-83
2022/08/21 06:10:16;;;;;;;1.10;1.08;;;;;;;18.16;54.87;101150.59;5110696;28;20077;-80
2022/08/21 06:12:53;;;;;;;0.60;0.60;;;;;;;18.12;57.59;101141.09;5147280;28;20054;-82
2022/08/21 06:15:37;;;;;;;0.70;0.45;;;;;;;18.17;56.61;101136.38;5091434;28;20130;-82
2022/08/21 06:18:14;;;;;;;0.35;0.35;;;;;;;18.14;55.73;101144.50;5130005;28;20045;-82
2022/08/21 06:20:44;;;;;;;0.75;0.75;;;;;;;18.15;55.50;101135.59;5124369;28;20034;-82
2022/08/21 06:23:15;;;;;;;0.60;0.60;;;;;;;18.16;57.41;101139.97;5130101;28;20037;-82
2022/08/21 06:25:46;;;;;;;0.80;0.80;;;;;;;18.16;56.77;101147.09;5090728;28;20137;-80
2022/08/21 06:28:16;;;;;;;0.32;0.32;;;;;;;18.14;57.33;101148.97;5108162;28;20022;-81
2022/08/21 06:30:47;;;;;;;2.08;1.15;;;;;;;18.15;56.88;101146.22;5126432;28;20645;-81
2022/08/21 06:33:18;;;;;;;0.70;0.70;;;;;;;18.22;56.94;101152.06;5129694;28;20479;-80
2022/08/21 06:35:51;;;;;;;1.42;1.33;;;;;;;18.22;57.08;101152.91;5108464;28;20057;-82
2022/08/21 06:38:22;;;;;;;0.30;0.30;;;;;;;18.23;57.94;101154.66;5145659;28;20462;-82
2022/08/21 06:40:52;;;;;;;0.65;0.65;;;;;;;18.28;56.47;101150.91;5113629;28;20039;-82
2022/08/21 06:43:23;;;;;;;4.22;1.75;;;;;;;18.36;56.66;101154.00;5125032;28;20042;-81
2022/08/21 06:46:02;;;;;;;1.13;0.77;;;;;;;18.29;58.28;101158.78;5139886;28;20439;-80
2022/08/21 06:48:45;;;;;;;0.47;0.47;;;;;;;18.23;58.31;101153.78;5132469;28;20046;-80
2022/08/21 06:51:18;;;;;;;0.55;0.40;;;;;;;18.27;58.56;101157.16;5136229;28;20061;-80
2022/08/21 06:53:49;;;;;;;4.70;1.27;;;;;;;18.17;59.25;101157.63;5127400;28;20022;-80
2022/08/21 06:56:20;;;;;;;0.20;0.20;;;;;;;18.15;58.56;101156.84;5120363;28;20050;-81
2022/08/21 06:58:51;;;;;;;1.45;1.33;;;;;;;18.18;58.62;101159.34;5124982;28;20022;-81
2022/08/21 07:01:24;;;;;;;4.72;1.17;;;;;;;18.21;59.46;101156.53;5126615;28;20042;-82
2022/08/21 07:03:58;;;;;;;0.90;0.90;;;;;;;18.23;58.76;101154.66;5113565;28;20104;-80
2022/08/21 07:06:31;;;;;;;0.40;0.40;;;;;;;18.31;57.78;101150.72;5149097;28;20038;-84
2022/08/21 07:09:05;;;;;;;9.75;0.85;;;;;;;18.39;58.09;101148.50;5130691;28;20097;-81
2022/08/21 07:11:39;;;;;;;0.20;0.20;;;;;;;18.39;57.24;101149.38;5146043;28;20078;-81
2022/08/21 07:14:09;;;;;;;0.20;0.20;;;;;;;18.39;57.65;101154.69;5114377;28;20045;-80
2022/08/21 07:16:40;;;;;;;0.70;0.60;;;;;;;18.44;58.07;101146.50;5125096;28;20058;-80
2022/08/21 07:19:10;;;;;;;0.63;0.63;;;;;;;18.46;57.71;101141.97;5142748;28;20037;-80
2022/08/21 07:21:41;;;;;;;0.38;0.38;;;;;;;18.47;57.94;101150.78;5127478;28;20056;-79
2022/08/21 07:24:12;;;;;;;0.30;0.30;;;;;;;18.39;58.67;101152.03;5161868;28;20023;-78
2022/08/21 07:26:43;;;;;;;0.65;0.65;;;;;;;18.41;57.91;101146.66;5158286;28;20448;-81
2022/08/21 07:29:14;;;;;;;2.88;0.93;;;;;;;18.39;58.57;101151.16;5145613;28;20063;-80
2022/08/21 07:31:45;;;;;;;0.30;0.30;;;;;;;18.45;57.79;101147.34;5118089;28;20072;-81
2022/08/21 07:34:16;;;;;;;0.50;0.50;;;;;;;18.46;58.32;101155.25;5146751;28;20023;-80
2022/08/21 07:36:46;;;;;;;0.38;0.38;;;;;;;18.49;58.85;101155.06;5152211;28;20049;-80
2022/08/21 07:39:20;;;;;;;0.30;0.30;;;;;;;18.46;58.29;101155.25;5142576;28;20101;-80
2022/08/21 07:41:51;;;;;;;0.82;0.82;;;;;;;18.53;58.14;101148.66;5126527;28;20045;-79
2022/08/21 07:44:21;;;;;;;0.50;0.50;;;;;;;18.54;57.98;101153.03;5147706;28;20098;-79
2022/08/21 07:46:52;;;;;;;0.77;0.75;;;;;;;18.57;57.62;101146.69;5144522;28;20046;-79
2022/08/21 07:49:22;;;;;;;1.17;0.85;;;;;;;18.62;57.35;101154.41;5138046;28;20045;-79
2022/08/21 07:51:53;;;;;;;3.25;0.75;;;;;;;18.58;58.07;101152.84;5125222;28;20034;-79
2022/08/21 07:54:24;;;;;;;0.35;0.35;;;;;;;18.65;57.88;101151.56;5121738;28;20323;-79
2022/08/21 07:56:54;;;;;;;0.20;0.20;;;;;;;18.68;57.20;101149.59;5112704;28;20039;-82
2022/08/21 07:59:25;;;;;;;0.57;0.57;;;;;;;18.68;57.14;101143.44;5139809;28;20042;-81
2022/08/21 08:01:56;;;;;;;0.30;0.30;;;;;;;18.72;57.54;101134.34;5130992;28;20129;-81
2022/08/21 08:04:26;;;;;;;1.88;0.25;;;;;;;18.76;57.40;101141.22;5128967;28;20053;-81
2022/08/21 08:06:57;;;;;;;6.28;1.10;;;;;;;18.79;57.60;101133.09;5152182;28;20034;-82
2022/08/21 08:09:28;;;;;;;0.52;0.52;;;;;;;18.82;57.23;101132.91;5143951;28;20306;-81
2022/08/21 08:12:05;;;;;;;0.20;0.20;;;;;;;18.86;57.74;101126.50;5127204;28;20550;-80
2022/08/21 08:14:36;;;;;;;0.30;0.30;;;;;;;18.91;57.83;101128.03;5135163;28;20035;-81
2022/08/21 08:17:10;;;;;;;0.22;0.22;;;;;;;18.93;57.49;101127.03;5108945;28;20388;-80
2022/08/21 08:19:40;;;;;;;0.30;0.30;;;;;;;18.96;57.79;101126.00;5147231;28;20031;-79
2022/08/21 08:22:19;;;;;;;0.40;0.40;;;;;;;18.98;57.38;101124.09;5109313;28;20109;-79
2022/08/21 08:24:51;;;;;;;0.50;0.50;;;;;;;19.04;57.63;101121.13;5146200;28;20026;-80
2022/08/21 08:27:24;;;;;;;1.85;0.77;;;;;;;19.01;57.19;101122.13;5126347;28;20043;-81
2022/08/21 08:29:58;;;;;;;0.63;0.63;;;;;;;19.11;57.15;101130.47;5137323;28;20034;-80
2022/08/21 08:32:28;;;;;;;0.25;0.25;;;;;;;19.12;56.99;101121.53;5141511;28;20097;-79
2022/08/21 08:34:59;;;;;;;0.30;0.30;;;;;;;19.18;56.61;101130.94;5111408;28;20026;-80
2022/08/21 08:37:30;;;;;;;0.20;0.20;;;;;;;19.23;56.73;101128.91;5120059;28;20134;-80
2022/08/21 08:40:00;;;;;;;0.25;0.25;;;;;;;19.28;56.79;101133.97;5139818;28;20069;-80
2022/08/21 08:42:36;;;;;;;0.82;0.50;;;;;;;19.37;56.30;101135.22;5126783;28;20049;-80
2022/08/21 08:45:13;;;;;;;0.40;0.40;;;;;;;19.40;56.00;101127.06;5120370;28;20022;-80
2022/08/21 08:47:49;;;;;;;0.22;0.22;;;;;;;19.53;55.46;101127.22;5130973;28;20050;-80
2022/08/21 08:50:26;;;;;;;0.20;0.20;;;;;;;19.54;55.67;101126.28;5132124;28;20084;-80
2022/08/21 08:53:09;;;;;;;0.20;0.20;;;;;;;19.63;55.65;101126.59;5141631;28;20054;-80
2022/08/21 08:55:43;;;;;;;0.30;0.30;;;;;;;19.69;55.33;101128.03;5097784;28;20047;-81
2022/08/21 08:58:23;;;;;;;0.20;0.20;;;;;;;19.62;55.62;101127.53;5147427;28;20089;-80
2022/08/21 09:00:54;;;;;;;2.17;1.05;;;;;;;19.57;55.63;101120.75;5161765;28;20042;-80
2022/08/21 09:03:27;;;;;;;1.65;0.38;;;;;;;19.62;55.36;101116.03;5133455;28;20030;-80
2022/08/21 09:06:22;;;;;;;0.28;0.28;;;;;;;19.65;55.60;101123.81;5147002;28;20046;-80
2022/08/21 09:09:31;;;;;;;0.20;0.20;;;;;;;19.69;55.52;101117.38;5124068;28;20053;-80
2022/08/21 09:12:25;;;;;;;0.47;0.47;;;;;;;19.68;55.30;101107.69;5125040;28;20034;-80
2022/08/21 09:15:46;;;;;;;7.38;1.10;;;;;;;19.71;55.50;101111.97;5110395;28;20112;-79
2022/08/21 09:18:29;;;;;;;0.30;0.30;;;;;;;19.77;55.24;101098.28;5129721;28;20057;-78
2022/08/21 09:21:04;;;;;;;0.20;0.20;;;;;;;19.84;55.26;101101.44;5130785;28;20129;-80
2022/08/21 09:23:46;;;;;;;0.45;0.40;;;;;;;19.89;55.22;101104.69;5110100;28;20519;-80
2022/08/21 09:26:20;;;;;;;0.52;0.52;;;;;;;19.88;54.93;101103.00;5142707;28;20049;-80
2022/08/21 09:29:00;;;;;;;1.10;1.10;;;;;;;19.90;54.90;101101.97;5148905;28;20026;-80
2022/08/21 09:31:35;;;;;;;0.65;0.65;;;;;;;19.97;55.06;101107.75;5154247;28;20689;-80
2022/08/21 09:34:14;;;;;;;0.28;0.28;;;;;;;20.04;54.76;101105.59;5144156;28;20404;-80
2022/08/21 09:36:49;;;;;;;0.50;0.50;;;;;;;20.04;54.25;101113.56;5116251;28;20058;-81
2022/08/21 09:39:29;;;;;;;0.65;0.65;;;;;;;20.06;54.23;101111.69;5142573;28;20045;-80
2022/08/21 09:42:09;;;;;;;0.20;0.20;;;;;;;20.08;53.97;101105.31;5135220;28;20084;-80
2022/08/21 09:44:43;;;;;;;0.80;0.73;;;;;;;20.09;53.83;101112.34;5124350;28;20038;-81
2022/08/21 09:47:18;;;;;;;0.25;0.25;;;;;;;20.19;53.93;101101.13;5119789;28;20081;-81
2022/08/21 09:49:49;;;;;;;0.68;0.68;;;;;;;20.21;53.67;101107.19;5131148;28;20026;-81
2022/08/21 09:52:22;;;;;;;0.20;0.20;;;;;;;20.21;53.63;101101.88;5141509;28;20648;-81
2022/08/21 09:54:55;;;;;;;0.63;0.63;;;;;;;20.21;53.15;101104.53;5148640;28;20054;-80
2022/08/21 09:57:39;;;;;;;0.50;0.50;;;;;;;20.24;53.33;101101.69;5122479;28;20043;-81
2022/08/21 10:00:32;;;;;;;0.38;0.38;;;;;;;20.28;53.48;101097.91;5140434;28;20287;-80
2022/08/21 10:03:16;;;;;;;0.40;0.40;;;;;;;20.32;52.92;101096.75;5139744;28;20573;-82
2022/08/21 10:05:59;;;;;;;0.55;0.55;;;;;;;20.39;53.13;101094.56;5135539;28;20057;-81
2022/08/21 10:08:29;;;;;;;0.28;0.28;;;;;;;20.38;52.65;101091.03;5136643;28;20650;-81
2022/08/21 10:11:14;;;;;;;1.88;0.60;;;;;;;20.47;53.06;101091.41;5125998;28;20082;-77
2022/08/21 10:14:00;;;;;;;0.50;0.50;;;;;;;20.54;53.06;101090.06;5123400;28;20066;-80
2022/08/21 10:16:50;;;;;;;2.05;1.40;;;;;;;20.61;52.08;101086.06;5138035;28;20047;-80
2022/08/21 10:19:29;;;;;;;0.45;0.45;;;;;;;20.67;52.62;101090.13;5141002;28;20039;-80
2022/08/21 10:22:25;;;;;;;0.50;0.50;;;;;;;20.68;52.60;101086.53;5124526;28;20039;-80
2022/08/21 10:25:10;;;;;;;0.45;0.45;;;;;;;20.68;52.02;101086.53;5145231;28;20027;-79
2022/08/21 10:28:10;;;;;;;2.75;1.15;;;;;;;20.70;52.21;101089.94;5126417;28;20051;-80
2022/08/21 10:30:43;;;;;;;1.88;1.25;;;;;;;20.74;51.99;101088.84;5138518;28;20057;-79
2022/08/21 10:33:23;;;;;;;0.20;0.20;;;;;;;20.75;52.30;101082.53;5117950;28;20096;-81
2022/08/21 10:36:00;;;;;;;0.40;0.40;;;;;;;20.78;51.63;101077.00;5106584;28;20078;-79
2022/08/21 10:38:36;;;;;;;0.20;0.20;;;;;;;20.81;51.75;101073.28;5142671;28;20047;-79
2022/08/21 10:41:13;;;;;;;0.85;0.85;;;;;;;20.84;51.51;101079.28;5138217;28;20050;-79
2022/08/21 10:44:23;;;;;;;0.55;0.55;;;;;;;20.85;51.60;101072.16;5140359;28;20039;-79
2022/08/21 10:47:12;;;;;;;0.40;0.40;;;;;;;20.90;51.56;101068.22;5111337;28;20047;-80
2022/08/21 10:49:56;;;;;;;0.20;0.20;;;;;;;20.91;51.33;101067.25;5160874;28;20113;-80
2022/08/21 10:52:32;;;;;;;1.30;0.40;;;;;;;20.96;51.73;101069.63;5122493;28;20408;-80
2022/08/21 10:55:09;;;;;;;0.47;0.47;;;;;;;21.09;52.30;101071.50;5143121;28;20041;-80
2022/08/21 10:57:57;;;;;;;0.70;0.70;;;;;;;21.11;51.51;101074.94;5141910;28;20045;-80
2022/08/21 11:00:36;;;;;;;1.20;1.00;;;;;;;21.30;50.86;101077.22;5146430;28;20038;-80
2022/08/21 11:03:28;;;;;;;0.35;0.35;;;;;;;21.28;51.29;101073.78;5141996;28;20603;-82
2022/08/21 11:06:14;;;;;;;0.50;0.50;;;;;;;21.29;50.62;101063.00;5123427;28;20054;-80
2022/08/21 11:08:51;;;;;;;0.65;0.65;;;;;;;21.34;50.52;101068.91;5151339;28;20126;-80
2022/08/21 11:11:25;;;;;;;0.47;0.47;;;;;;;21.38;50.66;101062.38;5132008;28;20034;-80
2022/08/21 11:14:21;;;;;;;0.80;0.47;;;;;;;21.44;48.79;101073.63;5124892;28;20026;-83
2022/08/21 11:17:07;;;;;;;0.30;0.30;;;;;;;21.48;49.74;101064.44;5143219;28;20151;-80
2022/08/21 11:19:44;;;;;;;0.20;0.20;;;;;;;21.60;47.97;101063.66;5122985;28;20109;-81
2022/08/21 11:22:36;;;;;;;0.45;0.45;;;;;;;21.58;49.58;101060.22;5143646;28;20101;-80
2022/08/21 11:25:22;;;;;;;1.02;0.93;;;;;;;21.67;49.82;101058.72;5143920;28;20063;-81
2022/08/21 11:28:03;;;;;;;0.22;0.22;;;;;;;21.70;49.57;101051.34;5155138;28;20050;-80
2022/08/21 11:31:13;;;;;;;0.17;0.17;;;;;;;21.88;48.77;101059.06;5129702;28;20096;-80
2022/08/21 11:33:43;;;;;;;2.75;1.15;;;;;;;21.96;48.39;101059.38;5102886;28;20038;-81
2022/08/21 11:36:32;;;;;;;0.30;0.30;;;;;;;22.01;48.09;101062.59;5123503;28;20034;-80
2022/08/21 11:39:37;;;;;;;3.90;1.05;;;;;;;22.06;48.38;101050.72;5141596;28;20045;-81
2022/08/21 11:42:19;;;;;;;0.20;0.20;;;;;;;22.17;48.02;101053.50;5122698;28;20049;-81
2022/08/21 11:45:10;;;;;;;0.20;0.20;;;;;;;22.27;48.35;101056.34;5126261;28;20063;-81
2022/08/21 11:47:55;;;;;;;0.20;0.20;;;;;;;22.37;45.72;101053.88;5106069;28;20133;-82
2022/08/21 11:50:31;;;;;;;1.75;1.10;;;;;;;22.33;47.45;101061.25;5124104;28;20041;-82
2022/08/21 11:53:24;;;;;;;0.30;0.30;;;;;;;22.41;47.67;101058.06;5084049;28;20468;-82
2022/08/21 11:56:43;;;;;;;0.40;0.40;;;;;;;22.50;47.40;101046.72;5130412;28;20470;-82
2022/08/21 11:59:23;;;;;;;0.20;0.20;;;;;;;22.68;46.65;101044.53;5123606;28;20795;-80
2022/08/21 12:02:18;;;;;;;0.20;0.20;;;;;;;22.66;47.95;101046.44;5104707;28;20402;-83
2022/08/21 12:04:53;;;;;;;0.57;0.57;;;;;;;22.78;46.89;101039.34;5123974;28;20043;-83